11 de agosto de 2022

Hora Código Tiempo Temp. Visibilidad Cielo nuboso Viento METAR/SPECI
19:00
V
39 °C 10 km+ - 300° 300° 3 kt METAR LFBA 111700Z AUTO 30003KT 250V360 CAVOK 39/13 Q1010 NOSIG
18:30
V
39 °C 10 km+ - Var Var 3 kt METAR LFBA 111630Z AUTO VRB03KT CAVOK 39/14 Q1011 NOSIG
18:00
V
39 °C 10 km+ - 070° 070° 4 kt METAR LFBA 111600Z AUTO 07004KT 350V120 CAVOK 39/15 Q1011 NOSIG
17:30
V
40 °C 10 km+ - 140° 140° 7 kt METAR LFBA 111530Z AUTO 14007KT 090V180 CAVOK 40/15 Q1011 NOSIG
17:00
V
39 °C 10 km+ - 140° 140° 4 kt METAR LFBA 111500Z AUTO 14004KT 100V210 CAVOK 39/14 Q1011 NOSIG
16:30
V
39 °C 10 km+ - 180° 180° 6 kt METAR LFBA 111430Z AUTO 18006KT 080V230 CAVOK 39/14 Q1011 NOSIG
16:00
V
39 °C 10 km+ - 070° 070° 6 kt METAR LFBA 111400Z AUTO 07006KT 360V140 CAVOK 39/17 Q1012 NOSIG
15:30
V
38 °C 10 km+ - 090° 090° 6 kt METAR LFBA 111330Z AUTO 09006KT 020V150 CAVOK 38/16 Q1012 NOSIG
15:00
V
38 °C 10 km+ - 080° 080° 6 kt METAR LFBA 111300Z AUTO 08006KT 020V120 CAVOK 38/19 Q1012 NOSIG
14:30
V
37 °C 10 km+ - 080° 080° 8 kt METAR LFBA 111230Z AUTO 08008KT 040V170 CAVOK 37/19 Q1013 NOSIG
14:00
V
36 °C 10 km+ - 120° 120° 6 kt METAR LFBA 111200Z AUTO 12006KT 040V180 CAVOK 36/19 Q1013 NOSIG
13:30
V
36 °C 10 km+ - 090° 090° 7 kt METAR LFBA 111130Z AUTO 09007KT 040V140 CAVOK 36/19 Q1013 NOSIG
13:00
V
35 °C 10 km+ - 090° 090° 7 kt METAR LFBA 111100Z AUTO 09007KT 060V130 CAVOK 35/19 Q1013 NOSIG
12:30
V
34 °C 10 km+ - 110° 110° 6 kt METAR LFBA 111030Z AUTO 11006KT 040V160 CAVOK 34/20 Q1014 NOSIG
12:00
V
33 °C 10 km+ - 090° 090° 6 kt METAR LFBA 111000Z AUTO 09006KT 050V120 CAVOK 33/21 Q1014 NOSIG
11:30
V
31 °C 10 km+ - 100° 100° 6 kt METAR LFBA 110930Z AUTO 10006KT 060V150 CAVOK 31/21 Q1014 NOSIG
11:00
V
30 °C 10 km+ - 090° 090° 7 kt METAR LFBA 110900Z AUTO 09007KT 060V140 CAVOK 30/21 Q1014 NOSIG
10:30
V
28 °C 10 km+ - 100° 100° 6 kt METAR LFBA 110830Z AUTO 10006KT 060V130 CAVOK 28/20 Q1014 NOSIG
10:00
V
27 °C 10 km+ - 080° 080° 6 kt METAR LFBA 110800Z AUTO 08006KT CAVOK 27/20 Q1014 NOSIG
09:30
V
25 °C 10 km+ - 090° 090° 7 kt METAR LFBA 110730Z AUTO 09007KT CAVOK 25/19 Q1014 NOSIG
09:00
V
24 °C 10 km+ - 110° 110° 8 kt METAR LFBA 110700Z AUTO 11008KT CAVOK 24/19 Q1014 NOSIG
08:30
V
23 °C 10 km+ - 110° 110° 8 kt METAR LFBA 110630Z AUTO 11008KT CAVOK 23/18 Q1014 NOSIG
08:00
V
21 °C 10 km+ - 120° 120° 7 kt METAR LFBA 110600Z AUTO 12007KT CAVOK 21/17 Q1014 NOSIG
07:30
V
20 °C 10 km+ - 110° 110° 6 kt METAR LFBA 110530Z AUTO 11006KT CAVOK 20/16 Q1014 NOSIG
07:00
V
18 °C 10 km+ - 110° 110° 5 kt METAR LFBA 110500Z AUTO 11005KT CAVOK 18/15 Q1014
06:30
V
18 °C 10 km+ - 110° 110° 6 kt METAR LFBA 110430Z AUTO 11006KT CAVOK 18/15 Q1014
06:00
V
19 °C 10 km+ - 120° 120° 4 kt METAR LFBA 110400Z AUTO 12004KT CAVOK 19/14 Q1014
05:30
V
19 °C 10 km+ - 090° 090° 4 kt METAR LFBA 110330Z AUTO 09004KT 070V130 CAVOK 19/14 Q1014
05:00
V
19 °C 10 km+ - 120° 120° 3 kt METAR LFBA 110300Z AUTO 12003KT CAVOK 19/13 Q1014
04:30
V
19 °C 10 km+ - 110° 110° 3 kt METAR LFBA 110230Z AUTO 11003KT CAVOK 19/13 Q1014
04:00
V
19 °C 10 km+ - 110° 110° 3 kt METAR LFBA 110200Z AUTO 11003KT CAVOK 19/13 Q1014
03:30
V
20 °C 10 km+ - 120° 120° 3 kt METAR LFBA 110130Z AUTO 12003KT CAVOK 20/13 Q1013
03:00
V
20 °C 10 km+ - 110° 110° 4 kt METAR LFBA 110100Z AUTO 11004KT CAVOK 20/12 Q1013
02:30
V
20 °C 10 km+ - Var 000° 0 kt METAR LFBA 110030Z AUTO 00000KT CAVOK 20/13 Q1013
02:00
V
20 °C 10 km+ - 100° 100° 3 kt METAR LFBA 110000Z AUTO 10003KT CAVOK 20/13 Q1013
01:30
V
20 °C 10 km+ - 110° 110° 5 kt METAR LFBA 102330Z AUTO 11005KT CAVOK 20/12 Q1013
01:00
V
21 °C 10 km+ - 100° 100° 5 kt METAR LFBA 102300Z AUTO 10005KT CAVOK 21/14 Q1013
00:30
V
22 °C 10 km+ - 130° 130° 7 kt METAR LFBA 102230Z AUTO 13007KT 110V170 CAVOK 22/12 Q1013
00:00
V
21 °C 10 km+ - Var 000° 0 kt METAR LFBA 102200Z AUTO 00000KT CAVOK 21/11 Q1013

10 de agosto de 2022

Hora Código Tiempo Temp. Visibilidad Cielo nuboso Viento METAR/SPECI
23:30
V
22 °C 10 km+ - Var 000° 0 kt METAR LFBA 102130Z AUTO 00000KT CAVOK 22/12 Q1013
23:00
V
23 °C 10 km+ - Var Var 2 kt METAR LFBA 102100Z AUTO VRB02KT CAVOK 23/12 Q1013
22:30
V
24 °C 10 km+ - 270° 270° 1 kt METAR LFBA 102030Z AUTO 27001KT CAVOK 24/12 Q1013
22:00
V
25 °C 10 km+ - 110° 110° 2 kt METAR LFBA 102000Z AUTO 11002KT CAVOK 25/12 Q1013 NOSIG
21:30
I
27 °C 3,7 km - Var Var 1 kt METAR LFBA 101930Z AUTO VRB01KT 9999 3700 NSC 27/12 Q1013 NOSIG
21:00
V
29 °C 10 km+ - Var 000° 0 kt METAR LFBA 101900Z AUTO 00000KT CAVOK 29/13 Q1013 NOSIG
20:30
V
32 °C 10 km+ - 180° 180° 2 kt METAR LFBA 101830Z AUTO 18002KT CAVOK 32/11 Q1013 NOSIG
20:00
V
34 °C 10 km+ - 300° 300° 3 kt METAR LFBA 101800Z AUTO 30003KT CAVOK 34/09 Q1013 NOSIG
19:30
V
35 °C 10 km+ - 280° 280° 3 kt METAR LFBA 101730Z AUTO 28003KT 250V310 CAVOK 35/08 Q1013 NOSIG
19:00
V
35 °C 10 km+ - 190° 190° 2 kt METAR LFBA 101700Z AUTO 19002KT CAVOK 35/07 Q1013 NOSIG
18:30
V
36 °C 10 km+ - 130° 130° 5 kt METAR LFBA 101630Z AUTO 13005KT CAVOK 36/05 Q1013 NOSIG
18:00
V
38 °C 10 km+ - Var Var 2 kt METAR LFBA 101600Z AUTO VRB02KT CAVOK 38/06 Q1013 NOSIG
17:30
V
38 °C 10 km+ - Var Var 3 kt METAR LFBA 101530Z AUTO VRB03KT CAVOK 38/06 Q1013 NOSIG
17:00
V
37 °C 10 km+ - 100° 100° 4 kt METAR LFBA 101500Z AUTO 10004KT 060V160 CAVOK 37/05 Q1013 NOSIG
16:30
V
37 °C 10 km+ - 070° 070° 4 kt METAR LFBA 101430Z AUTO 07004KT 320V130 CAVOK 37/06 Q1014 NOSIG
16:00
V
37 °C 10 km+ - Var Var 3 kt METAR LFBA 101400Z AUTO VRB03KT CAVOK 37/05 Q1014 NOSIG
15:30
V
36 °C 10 km+ - 060° 060° 4 kt METAR LFBA 101330Z AUTO 06004KT 010V130 CAVOK 36/06 Q1014 NOSIG
15:00
V
36 °C 10 km+ - 080° 080° 5 kt METAR LFBA 101300Z AUTO 08005KT 030V120 CAVOK 36/06 Q1015 NOSIG
14:30
V
37 °C 10 km+ - 170° 170° 4 kt METAR LFBA 101230Z AUTO 17004KT 090V240 CAVOK 37/08 Q1015 NOSIG
14:00
V
36 °C 10 km+ - Var Var 2 kt METAR LFBA 101200Z AUTO VRB02KT CAVOK 36/08 Q1015 NOSIG
13:30
V
34 °C 10 km+ - Var Var 2 kt METAR LFBA 101130Z AUTO VRB02KT CAVOK 34/09 Q1016 NOSIG
13:00
V
33 °C 10 km+ - Var Var 2 kt METAR LFBA 101100Z AUTO VRB02KT CAVOK 33/10 Q1016 NOSIG
12:30
V
32 °C 10 km+ - 050° 050° 3 kt METAR LFBA 101030Z AUTO 05003KT 330V130 CAVOK 32/11 Q1016 NOSIG
12:00
V
31 °C 10 km+ - 120° 120° 4 kt METAR LFBA 101000Z AUTO 12004KT 080V210 CAVOK 31/12 Q1016 NOSIG
11:30
V
29 °C 10 km+ - 120° 120° 4 kt METAR LFBA 100930Z AUTO 12004KT 050V170 CAVOK 29/14 Q1016 NOSIG
11:00
V
27 °C 10 km+ - 100° 100° 4 kt METAR LFBA 100900Z AUTO 10004KT 060V130 CAVOK 27/13 Q1016 NOSIG
10:30
V
25 °C 10 km+ - 070° 070° 4 kt METAR LFBA 100830Z AUTO 07004KT 040V110 CAVOK 25/13 Q1016 NOSIG
10:00
V
24 °C 10 km+ - 090° 090° 5 kt METAR LFBA 100800Z AUTO 09005KT CAVOK 24/13 Q1016 NOSIG
09:30
V
23 °C 10 km+ - 070° 070° 5 kt METAR LFBA 100730Z AUTO 07005KT 050V110 CAVOK 23/13 Q1016 NOSIG
09:00
V
20 °C 10 km+ - 090° 090° 4 kt METAR LFBA 100700Z AUTO 09004KT 060V130 CAVOK 20/13 Q1016 NOSIG
08:30
V
19 °C 10 km+ - 090° 090° 4 kt METAR LFBA 100630Z AUTO 09004KT CAVOK 19/13 Q1016 NOSIG
08:00
V
17 °C 10 km+ - 120° 120° 3 kt METAR LFBA 100600Z AUTO 12003KT CAVOK 17/13 Q1016 NOSIG
07:30
V
15 °C 10 km+ - Var 000° 0 kt METAR LFBA 100530Z AUTO 00000KT CAVOK 15/10 Q1016
07:00
V
15 °C 10 km+ - Var 000° 0 kt METAR LFBA 100500Z AUTO 00000KT CAVOK 15/10 Q1016
06:30
V
15 °C 10 km+ - 070° 070° 2 kt METAR LFBA 100430Z AUTO 07002KT CAVOK 15/10 Q1016
06:00
V
15 °C 10 km+ - Var Var 1 kt METAR LFBA 100400Z AUTO VRB01KT CAVOK 15/10 Q1016
05:30
V
15 °C 10 km+ - Var 000° 0 kt METAR LFBA 100330Z AUTO 00000KT CAVOK 15/10 Q1016
05:00
V
15 °C 10 km+ - 050° 050° 2 kt METAR LFBA 100300Z AUTO 05002KT CAVOK 15/10 Q1016
04:30
V
15 °C 10 km+ - Var 000° 0 kt METAR LFBA 100230Z AUTO 00000KT CAVOK 15/10 Q1016
04:00
V
17 °C 10 km+ - Var Var 1 kt METAR LFBA 100200Z AUTO VRB01KT CAVOK 17/10 Q1016
03:30
V
17 °C 10 km+ - Var 000° 0 kt METAR LFBA 100130Z AUTO 00000KT CAVOK 17/10 Q1016
03:00
V
17 °C 10 km+ - Var 000° 0 kt METAR LFBA 100100Z AUTO 00000KT CAVOK 17/10 Q1016
02:30
V
17 °C 10 km+ - Var 000° 0 kt METAR LFBA 100030Z AUTO 00000KT CAVOK 17/10 Q1016
02:00
V
18 °C 10 km+ - Var 000° 0 kt METAR LFBA 100000Z AUTO 00000KT CAVOK 18/10 Q1016
01:30
V
18 °C 10 km+ - Var Var 1 kt METAR LFBA 092330Z AUTO VRB01KT CAVOK 18/10 Q1016
01:00
V
19 °C 10 km+ - Var 000° 0 kt METAR LFBA 092300Z AUTO 00000KT CAVOK 19/10 Q1016
00:30
V
21 °C 10 km+ - Var Var 2 kt METAR LFBA 092230Z AUTO VRB02KT CAVOK 21/10 Q1016
00:00
V
21 °C 10 km+ - Var 000° 0 kt METAR LFBA 092200Z AUTO 00000KT CAVOK 21/11 Q1016

9 de agosto de 2022

Hora Código Tiempo Temp. Visibilidad Cielo nuboso Viento METAR/SPECI
23:30
V
22 °C 10 km+ - 050° 050° 1 kt METAR LFBA 092130Z AUTO 05001KT CAVOK 22/11 Q1016
23:00
V
23 °C 10 km+ - 310° 310° 2 kt METAR LFBA 092100Z AUTO 31002KT CAVOK 23/11 Q1016
22:30
V
24 °C 10 km+ - Var 000° 0 kt METAR LFBA 092030Z AUTO 00000KT CAVOK 24/11 Q1016
22:00
V
26 °C 10 km+ - 190° 190° 2 kt METAR LFBA 092000Z AUTO 19002KT CAVOK 26/09 Q1016 NOSIG
21:30
V
28 °C 10 km+ - 220° 220° 2 kt METAR LFBA 091930Z AUTO 22002KT CAVOK 28/09 Q1016 NOSIG
21:00
V
32 °C 10 km+ - 230° 230° 2 kt METAR LFBA 091900Z AUTO 23002KT CAVOK 32/08 Q1016 NOSIG
20:30
V
34 °C 10 km+ - 290° 290° 3 kt METAR LFBA 091830Z AUTO 29003KT CAVOK 34/07 Q1016 NOSIG
20:00
V
35 °C 10 km+ - Var Var 3 kt METAR LFBA 091800Z AUTO VRB03KT CAVOK 35/07 Q1016 NOSIG
19:30
V
35 °C 10 km+ - 320° 320° 4 kt METAR LFBA 091730Z AUTO 32004KT 280V010 CAVOK 35/08 Q1016 NOSIG
19:00
V
35 °C 10 km+ - 350° 350° 4 kt METAR LFBA 091700Z AUTO 35004KT 310V030 CAVOK 35/07 Q1016 NOSIG
18:30
V
36 °C 10 km+ - 320° 320° 7 kt METAR LFBA 091630Z AUTO 32007KT 280V340 CAVOK 36/07 Q1016 NOSIG
18:00
V
36 °C 10 km+ - 280° 280° 5 kt METAR LFBA 091600Z AUTO 28005KT 170V330 CAVOK 36/07 Q1016 NOSIG
17:30
V
36 °C 10 km+ - 310° 310° 4 kt METAR LFBA 091530Z AUTO 31004KT 250V020 CAVOK 36/07 Q1016 NOSIG
17:00
V
36 °C 10 km+ - 300° 300° 6 kt METAR LFBA 091500Z AUTO 30006KT 260V350 CAVOK 36/08 Q1016 NOSIG
Datos más antiguos

Nosotros y terceros seguimos tu comportamiento en Internet en nuestro sitio web con cookies. Si continúas, asumimos que estás de acuerdo con nuestra política de cookies. Más información